^^
Daily Summary for June 01, 2021 Units:  Metric    English   Both
Daily Weekly Monthly Yearly Custom
  High: Low: Average:
Temperature: 38.3 °C 20 °C 27.4 °C
Dew Point: 12.2 °C 4.4 °C 8.2 °C
Humidity: 50% 15% 32%
Wind Speed: 25.7km/h 0km/h 5.3km/h
Wind Gust: 25.7km/h - -
Wind- - WSW
Pressure: 1015.8 hPa 1012.4 hPa -
Precipitation: 0 mm    
Historical Graphs
 
 
Tabular Data for June 01, 2021
Time Temperature Dew Point Pressure Wind Wind Speed Wind Gust Humidity Rainfall Rate (Hourly) solar
00:04 22.2 °C 7.8 °C 1012.4 hPa Calm     39% 0 mm 0.00 W/m2
00:09 22.2 °C 8.3 °C 1012.4 hPa Calm     41% 0 mm 0.00 W/m2
00:14 22.2 °C 8.3 °C 1012.4 hPa Calm     41% 0 mm 0.00 W/m2
00:19 22.2 °C 8.3 °C 1012.4 hPa Calm     41% 0 mm 0.00 W/m2
00:24 22.2 °C 8.3 °C 1012.4 hPa Calm     41% 0 mm 0.00 W/m2
00:29 22.2 °C 8.3 °C 1012.4 hPa Calm     41% 0 mm 0.00 W/m2
00:34 22.2 °C 8.3 °C 1012.4 hPa Calm     42% 0 mm 0.00 W/m2
00:39 22.2 °C 8.3 °C 1012.4 hPa Calm     42% 0 mm 0.00 W/m2
00:44 21.7 °C 8.3 °C 1012.4 hPa WNW 3.2 km/h   42% 0 mm 0.00 W/m2
00:49 21.7 °C 8.3 °C 1012.4 hPa Calm   3.2 km/h 42% 0 mm 0.00 W/m2
00:54 21.7 °C 8.9 °C 1012.4 hPa Calm     44% 0 mm 0.00 W/m2
00:59 21.7 °C 8.3 °C 1012.4 hPa Calm     42% 0 mm 0.00 W/m2
01:04 21.7 °C 7.8 °C 1012.4 hPa WNW 3.2 km/h   41% 0 mm 0.00 W/m2
01:09 21.7 °C 7.8 °C 1012.4 hPa WNW 3.2 km/h 3.2 km/h 41% 0 mm 0.00 W/m2
01:14 21.7 °C 7.8 °C 1012.4 hPa WNW 3.2 km/h   41% 0 mm 0.00 W/m2
01:19 21.7 °C 7.8 °C 1012.4 hPa WNW 3.2 km/h 3.2 km/h 41% 0 mm 0.00 W/m2
01:24 21.7 °C 7.8 °C 1012.4 hPa Calm   3.2 km/h 41% 0 mm 0.00 W/m2
01:29 21.7 °C 7.2 °C 1012.4 hPa WNW 3.2 km/h   40% 0 mm 0.00 W/m2
01:34 21.7 °C 7.2 °C 1012.4 hPa WNW 3.2 km/h 3.2 km/h 40% 0 mm 0.00 W/m2
01:39 21.7 °C 7.8 °C 1012.4 hPa WNW 3.2 km/h 3.2 km/h 41% 0 mm 0.00 W/m2
01:44 21.7 °C 8.3 °C 1012.4 hPa Calm   3.2 km/h 43% 0 mm 0.00 W/m2
01:49 21.7 °C 7.8 °C 1012.4 hPa WNW 3.2 km/h   41% 0 mm 0.00 W/m2
01:54 21.7 °C 7.8 °C 1012.4 hPa WNW 3.2 km/h 3.2 km/h 41% 0 mm 0.00 W/m2
01:59 21.7 °C 7.2 °C 1012.4 hPa Calm   3.2 km/h 40% 0 mm 0.00 W/m2
02:04 21.7 °C 7.2 °C 1012.4 hPa Calm     39% 0 mm 0.00 W/m2
02:09 21.7 °C 7.2 °C 1012.4 hPa Calm     39% 0 mm 0.00 W/m2
02:14 21.7 °C 7.8 °C 1012.4 hPa WNW 3.2 km/h   40% 0 mm 0.00 W/m2
02:19 21.7 °C 7.8 °C 1012.4 hPa WNW 3.2 km/h 3.2 km/h 40% 0 mm 0.00 W/m2
02:24 21.7 °C 7.2 °C 1012.4 hPa Calm     39% 0 mm 0.00 W/m2
02:29 21.7 °C 7.2 °C 1012.4 hPa Calm     39% 0 mm 0.00 W/m2
02:34 21.7 °C 7.2 °C 1012.4 hPa Calm     39% 0 mm 0.00 W/m2
02:39 21.7 °C 7.2 °C 1012.4 hPa Calm     39% 0 mm 0.00 W/m2
02:44 21.7 °C 7.2 °C 1012.4 hPa Calm     39% 0 mm 0.00 W/m2
02:49 21.7 °C 6.7 °C 1012.4 hPa Calm     38% 0 mm 0.00 W/m2
02:54 21.7 °C 6.7 °C 1012.4 hPa Calm     38% 0 mm 0.00 W/m2
02:59 21.1 °C 6.7 °C 1012.4 hPa Calm     38% 0 mm 0.00 W/m2
03:04 21.1 °C 6.7 °C 1012.4 hPa Calm     38% 0 mm 0.00 W/m2
03:09 21.1 °C 6.7 °C 1012.4 hPa Calm     39% 0 mm 0.00 W/m2
03:14 21.1 °C 6.7 °C 1012.4 hPa WNW 3.2 km/h   39% 0 mm 0.00 W/m2
03:19 21.1 °C 6.7 °C 1012.4 hPa Calm   3.2 km/h 39% 0 mm 0.00 W/m2
03:24 21.1 °C 6.7 °C 1012.4 hPa WNW 6.4 km/h 1.6 km/h 39% 0 mm 0.00 W/m2
03:29 21.1 °C 6.1 °C 1012.4 hPa WNW 6.4 km/h 4.8 km/h 38% 0 mm 0.00 W/m2
03:34 21.1 °C 6.1 °C 1012.4 hPa WNW 9.7 km/h 3.2 km/h 38% 0 mm 0.00 W/m2
03:39 21.1 °C 6.1 °C 1012.4 hPa WNW 3.2 km/h 9.7 km/h 38% 0 mm 0.00 W/m2
03:44 20.6 °C 6.1 °C 1012.4 hPa Calm     38% 0 mm 0.00 W/m2
03:49 20.6 °C 6.1 °C 1012.4 hPa WNW 3.2 km/h   38% 0 mm 0.00 W/m2
03:54 20.6 °C 6.1 °C 1012.4 hPa Calm   3.2 km/h 38% 0 mm 0.00 W/m2
03:59 20.6 °C 5.6 °C 1012.4 hPa WNW 3.2 km/h   38% 0 mm 0.00 W/m2
04:04 20.6 °C 5.6 °C 1012.4 hPa WNW 3.2 km/h 3.2 km/h 38% 0 mm 0.00 W/m2
04:09 20.6 °C 5.6 °C 1012.4 hPa WNW 3.2 km/h 3.2 km/h 37% 0 mm 0.00 W/m2
04:14 20.6 °C 5 °C 1012.4 hPa WNW 3.2 km/h 3.2 km/h 36% 0 mm 0.00 W/m2
04:19 20.6 °C 5.6 °C 1012.4 hPa WNW 3.2 km/h 3.2 km/h 37% 0 mm 0.00 W/m2
04:24 20.6 °C 5 °C 1012.4 hPa Calm     36% 0 mm 0.00 W/m2
04:29 21.1 °C 5 °C 1012.4 hPa Calm     36% 0 mm 0.00 W/m2
04:34 21.1 °C 5 °C 1012.4 hPa WNW 3.2 km/h   36% 0 mm 0.00 W/m2
04:39 21.1 °C 4.4 °C 1012.4 hPa WNW 3.2 km/h 3.2 km/h 34% 0 mm 0.00 W/m2
04:44 21.1 °C 4.4 °C 1012.4 hPa WNW 6.4 km/h 3.2 km/h 34% 0 mm 0.00 W/m2
04:49 21.1 °C 4.4 °C 1012.4 hPa WNW 6.4 km/h 4.8 km/h 34% 0 mm 0.00 W/m2
04:54 21.1 °C 4.4 °C 1012.4 hPa Calm     34% 0 mm 0.00 W/m2
04:59 21.1 °C 4.4 °C 1012.4 hPa Calm     34% 0 mm 0.00 W/m2
05:04 21.1 °C 5.6 °C 1012.4 hPa Calm     36% 0 mm 0.00 W/m2
05:09 21.1 °C 5 °C 1012.4 hPa Calm     35% 0 mm 0.00 W/m2
05:14 21.1 °C 5.6 °C 1012.4 hPa Calm     36% 0 mm 0.00 W/m2
05:19 21.1 °C 4.4 °C 1012.4 hPa WNW 3.2 km/h   34% 0 mm 0.00 W/m2
05:24 21.1 °C 5 °C 1012.4 hPa Calm   3.2 km/h 35% 0 mm 0.00 W/m2
05:29 21.1 °C 5.6 °C 1012.4 hPa Calm     36% 0 mm 0.00 W/m2
05:34 21.1 °C 5 °C 1012.4 hPa Calm     35% 0 mm 0.00 W/m2
05:39 21.1 °C 5.6 °C 1012.4 hPa Calm     36% 0 mm 0.00 W/m2
05:44 21.1 °C 5.6 °C 1012.4 hPa WNW 3.2 km/h   37% 0 mm 0.00 W/m2
05:49 21.1 °C 5.6 °C 1012.4 hPa Calm   3.2 km/h 36% 0 mm 0.00 W/m2
05:54 21.1 °C 5.6 °C 1012.4 hPa Calm     36% 0 mm 5.00 W/m2
05:59 21.1 °C 4.4 °C 1012.4 hPa Calm     34% 0 mm 7.00 W/m2
06:04 21.1 °C 5 °C 1012.4 hPa WNW 3.2 km/h   35% 0 mm 7.00 W/m2
06:09 21.1 °C 5 °C 1012.4 hPa Calm   3.2 km/h 35% 0 mm 9.00 W/m2
06:14 20.6 °C 5 °C 1012.4 hPa Calm     35% 0 mm 9.00 W/m2
06:19 20.6 °C 5 °C 1012.4 hPa Calm     35% 0 mm 11.00 W/m2
06:24 20.6 °C 6.1 °C 1012.4 hPa Calm     39% 0 mm 12.00 W/m2
06:29 20.6 °C 6.7 °C 1012.4 hPa Calm     40% 0 mm 12.00 W/m2
06:34 20.6 °C 6.7 °C 1012.4 hPa Calm     40% 0 mm 14.00 W/m2
06:39 20.6 °C 6.7 °C 1012.4 hPa Calm     41% 0 mm 14.00 W/m2
06:44 20.6 °C 6.7 °C 1012.4 hPa Calm     40% 0 mm 16.00 W/m2
06:49 20.6 °C 6.1 °C 1012.4 hPa Calm     40% 0 mm 18.00 W/m2
06:54 20.6 °C 6.1 °C 1012.4 hPa Calm     39% 0 mm 18.00 W/m2
06:59 20 °C 6.1 °C 1012.4 hPa Calm     40% 0 mm 19.00 W/m2
07:04 20 °C 6.7 °C 1015.8 hPa Calm     41% 0 mm 19.00 W/m2
07:09 20 °C 6.7 °C 1015.8 hPa Calm     42% 0 mm 21.00 W/m2
07:14 20 °C 6.7 °C 1015.8 hPa Calm     42% 0 mm 21.00 W/m2
07:19 20 °C 7.2 °C 1015.8 hPa Calm     44% 0 mm 23.00 W/m2
07:24 20 °C 7.2 °C 1015.8 hPa Calm     44% 0 mm 23.00 W/m2
07:29 20 °C 7.2 °C 1015.8 hPa Calm     44% 0 mm 25.00 W/m2
07:34 20 °C 7.2 °C 1015.8 hPa WNW 3.2 km/h   44% 0 mm 26.00 W/m2
07:39 20 °C 7.2 °C 1015.8 hPa Calm   3.2 km/h 44% 0 mm 28.00 W/m2
07:44 20 °C 7.8 °C 1015.8 hPa Calm     46% 0 mm 32.00 W/m2
07:49 20 °C 8.3 °C 1015.8 hPa Calm     47% 0 mm 65.00 W/m2
07:54 20 °C 8.3 °C 1015.8 hPa Calm     48% 0 mm 74.00 W/m2
07:59 20 °C 8.9 °C 1015.8 hPa Calm     49% 0 mm 116.00 W/m2
08:04 20.6 °C 9.4 °C 1015.8 hPa Calm     50% 0 mm 83.00 W/m2
08:09 20.6 °C 9.4 °C 1015.8 hPa Calm     50% 0 mm 72.00 W/m2
08:14 20.6 °C 9.4 °C 1015.8 hPa Calm     49% 0 mm 169.00 W/m2
08:19 21.1 °C 10 °C 1015.8 hPa Calm     49% 0 mm 74.00 W/m2
08:24 21.1 °C 9.4 °C 1015.8 hPa Calm     48% 0 mm 146.00 W/m2
08:29 21.7 °C 10 °C 1015.8 hPa Calm     48% 0 mm 388.00 W/m2
08:34 21.7 °C 10.6 °C 1015.8 hPa Calm     48% 0 mm 388.00 W/m2
08:39 22.2 °C 9.4 °C 1015.8 hPa Calm     45% 0 mm 316.00 W/m2
08:44 22.8 °C 10 °C 1015.8 hPa Calm     45% 0 mm 548.00 W/m2
08:49 22.8 °C 10 °C 1015.8 hPa WNW 3.2 km/h   44% 0 mm 564.00 W/m2
08:54 23.3 °C 10 °C 1015.8 hPa Calm   3.2 km/h 44% 0 mm 580.00 W/m2
08:59 23.9 °C 10.6 °C 1015.8 hPa WNW 3.2 km/h   43% 0 mm 596.00 W/m2
09:04 24.4 °C 10.6 °C 1015.8 hPa WNW 3.2 km/h 3.2 km/h 43% 0 mm 613.00 W/m2
09:09 25 °C 11.1 °C 1015.8 hPa West 3.2 km/h 3.2 km/h 42% 0 mm 626.00 W/m2
09:14 25.6 °C 10.6 °C 1015.8 hPa SW 3.2 km/h 3.2 km/h 41% 0 mm 640.00 W/m2
09:19 26.1 °C 11.7 °C 1015.8 hPa SSE 3.2 km/h 3.2 km/h 41% 0 mm 657.00 W/m2
09:24 26.1 °C 11.1 °C 1015.8 hPa South 3.2 km/h 3.2 km/h 38% 0 mm 668.00 W/m2
09:29 26.7 °C 12.2 °C 1015.8 hPa South 3.2 km/h 3.2 km/h 41% 0 mm 686.00 W/m2
09:34 27.2 °C 11.1 °C 1015.8 hPa South 3.2 km/h 3.2 km/h 37% 0 mm 701.00 W/m2
09:39 27.8 °C 9.4 °C 1015.8 hPa South 3.2 km/h 3.2 km/h 33% 0 mm 714.00 W/m2
09:44 28.3 °C 10 °C 1015.8 hPa ESE 6.4 km/h 3.2 km/h 33% 0 mm 729.00 W/m2
09:49 28.3 °C 10 °C 1015.8 hPa SE 6.4 km/h 4.8 km/h 32% 0 mm 738.00 W/m2
09:54 28.9 °C 10 °C 1015.8 hPa SE 3.2 km/h 4.8 km/h 31% 0 mm 745.00 W/m2
09:59 28.9 °C 10 °C 1015.8 hPa SE 3.2 km/h 3.2 km/h 30% 0 mm 763.00 W/m2
10:04 29.4 °C 10 °C 1015.8 hPa SW 6.4 km/h 3.2 km/h 30% 0 mm 765.00 W/m2
10:09 30 °C 10 °C 1015.8 hPa SW 3.2 km/h 4.8 km/h 29% 0 mm 768.00 W/m2
10:14 30 °C 10 °C 1015.8 hPa South 6.4 km/h 3.2 km/h 29% 0 mm 770.00 W/m2
10:19 30.6 °C 10.6 °C 1015.8 hPa South 3.2 km/h 4.8 km/h 29% 0 mm 786.00 W/m2
10:24 30.6 °C 10.6 °C 1015.8 hPa SSE 3.2 km/h 3.2 km/h 29% 0 mm 823.00 W/m2
10:29 31.1 °C 10.6 °C 1015.8 hPa ESE 6.4 km/h 3.2 km/h 29% 0 mm 831.00 W/m2
10:34 31.1 °C 10.6 °C 1015.8 hPa East 3.2 km/h 4.8 km/h 28% 0 mm 849.00 W/m2
10:39 31.1 °C 10 °C 1015.8 hPa SE 9.7 km/h 4.8 km/h 27% 0 mm 856.00 W/m2
10:44 31.7 °C 10.6 °C 1015.8 hPa SE 6.4 km/h 9.7 km/h 28% 0 mm 860.00 W/m2
10:49 31.7 °C 10.6 °C 1015.8 hPa ESE 6.4 km/h 4.8 km/h 28% 0 mm 868.00 W/m2
10:54 31.7 °C 11.7 °C 1015.8 hPa WSW 9.7 km/h 6.4 km/h 29% 0 mm 888.00 W/m2
10:59 32.2 °C 10 °C 1015.8 hPa WNW 17.7 km/h 9.7 km/h 26% 0 mm 888.00 W/m2
11:04 32.2 °C 11.1 °C 1015.8 hPa WNW 6.4 km/h 16.1 km/h 28% 0 mm 898.00 W/m2
11:09 32.2 °C 9.4 °C 1015.8 hPa West 9.7 km/h 4.8 km/h 25% 0 mm 907.00 W/m2
11:14 32.2 °C 10.6 °C 1015.8 hPa SSE 6.4 km/h 9.7 km/h 26% 0 mm 916.00 W/m2
11:19 32.2 °C 10 °C 1015.8 hPa West 9.7 km/h 4.8 km/h 25% 0 mm 928.00 W/m2
11:24 32.8 °C 8.9 °C 1015.8 hPa SW 11.3 km/h 9.7 km/h 23% 0 mm 930.00 W/m2
11:29 32.8 °C 8.3 °C 1015.8 hPa WSW 3.2 km/h 11.3 km/h 22% 0 mm 930.00 W/m2
11:34 32.8 °C 10.6 °C 1015.8 hPa SW 3.2 km/h 3.2 km/h 25% 0 mm 940.00 W/m2
11:39 33.3 °C 10.6 °C 1015.8 hPa SSW 14.5 km/h 3.2 km/h 25% 0 mm 947.00 W/m2
11:44 33.3 °C 10 °C 1015.8 hPa West 14.5 km/h 14.5 km/h 24% 0 mm 951.00 W/m2
11:49 33.3 °C 9.4 °C 1015.8 hPa WNW 11.3 km/h 11.3 km/h 23% 0 mm 958.00 W/m2
11:54 33.3 °C 9.4 °C 1015.8 hPa WSW 14.5 km/h 14.5 km/h 23% 0 mm 963.00 W/m2
11:59 33.3 °C 9.4 °C 1015.8 hPa SW 11.3 km/h 9.7 km/h 23% 0 mm 967.00 W/m2
12:04 33.3 °C 8.9 °C 1015.8 hPa WSW 11.3 km/h 11.3 km/h 22% 0 mm 969.00 W/m2
12:09 33.3 °C 8.9 °C 1015.8 hPa WSW 14.5 km/h 14.5 km/h 22% 0 mm 974.00 W/m2
12:14 33.9 °C 9.4 °C 1015.8 hPa WNW 9.7 km/h 14.5 km/h 23% 0 mm 976.00 W/m2
12:19 33.9 °C 8.3 °C 1015.8 hPa West 11.3 km/h 9.7 km/h 21% 0 mm 981.00 W/m2
12:24 33.9 °C 8.9 °C 1015.8 hPa WNW 11.3 km/h 11.3 km/h 22% 0 mm 981.00 W/m2
12:29 33.9 °C 8.3 °C 1015.8 hPa West 17.7 km/h 11.3 km/h 21% 0 mm 981.00 W/m2
12:34 33.9 °C 10 °C 1015.8 hPa WSW 17.7 km/h 16.1 km/h 23% 0 mm 977.00 W/m2
12:39 33.9 °C 8.3 °C 1015.8 hPa SW 11.3 km/h 16.1 km/h 21% 0 mm 979.00 W/m2
12:44 34.4 °C 9.4 °C 1015.8 hPa SSW 14.5 km/h 9.7 km/h 22% 0 mm 979.00 W/m2
12:49 34.4 °C 9.4 °C 1015.8 hPa South 6.4 km/h 14.5 km/h 22% 0 mm 976.00 W/m2
12:54 34.4 °C 10.6 °C 1015.8 hPa South 11.3 km/h 6.4 km/h 23% 0 mm 977.00 W/m2
12:59 35 °C 10 °C 1015.8 hPa South 9.7 km/h 11.3 km/h 22% 0 mm 984.00 W/m2
13:03 35 °C 10 °C 1015.8 hPa SW 11.3 km/h 9.7 km/h 22% 0 mm 977.00 W/m2
13:09 35 °C 10 °C 1012.4 hPa NW 9.7 km/h 11.3 km/h 22% 0 mm 977.00 W/m2
13:14 35 °C 10 °C 1012.4 hPa West 14.5 km/h 14.5 km/h 22% 0 mm 977.00 W/m2
13:19 35 °C 10 °C 1012.4 hPa WSW 17.7 km/h 14.5 km/h 22% 0 mm 969.00 W/m2
13:24 35 °C 8.9 °C 1012.4 hPa SW 11.3 km/h 16.1 km/h 20% 0 mm 970.00 W/m2
13:29 35 °C 7.8 °C 1012.4 hPa SW 9.7 km/h 11.3 km/h 19% 0 mm 970.00 W/m2
13:34 35 °C 8.9 °C 1012.4 hPa West 11.3 km/h 11.3 km/h 20% 0 mm 967.00 W/m2
13:39 35.6 °C 8.9 °C 1012.4 hPa WSW 14.5 km/h 11.3 km/h 20% 0 mm 962.00 W/m2
13:44 35.6 °C 10 °C 1012.4 hPa WNW 9.7 km/h 14.5 km/h 21% 0 mm 962.00 W/m2
13:49 35.6 °C 10 °C 1012.4 hPa SW 9.7 km/h 9.7 km/h 21% 0 mm 953.00 W/m2
13:54 36.1 °C 8.9 °C 1012.4 hPa WSW 9.7 km/h 8 km/h 19% 0 mm 946.00 W/m2
13:59 36.1 °C 9.4 °C 1012.4 hPa WSW 9.7 km/h 9.7 km/h 20% 0 mm 944.00 W/m2
14:04 36.1 °C 10 °C 1012.4 hPa SW 6.4 km/h 9.7 km/h 21% 0 mm 932.00 W/m2
14:09 36.1 °C 10 °C 1012.4 hPa SE 6.4 km/h 4.8 km/h 20% 0 mm 921.00 W/m2
14:14 36.7 °C 10.6 °C 1012.4 hPa SSW 9.7 km/h 4.8 km/h 21% 0 mm 919.00 W/m2
14:19 36.7 °C 10 °C 1012.4 hPa WSW 14.5 km/h 9.7 km/h 20% 0 mm 914.00 W/m2
14:23 37.2 °C 9.4 °C 1012.4 hPa SSW 11.3 km/h 14.5 km/h 19% 0 mm 911.00 W/m2
14:29 37.2 °C 10 °C 1012.4 hPa WSW 11.3 km/h 11.3 km/h 19% 0 mm 900.00 W/m2
14:34 37.2 °C 8.9 °C 1012.4 hPa SSW 14.5 km/h 11.3 km/h 18% 0 mm 888.00 W/m2
14:39 37.2 °C 8.9 °C 1012.4 hPa SW 14.5 km/h 14.5 km/h 18% 0 mm 882.00 W/m2
14:44 37.2 °C 9.4 °C 1012.4 hPa West 6.4 km/h 4.8 km/h 19% 0 mm 875.00 W/m2
14:49 37.2 °C 9.4 °C 1012.4 hPa SSW 17.7 km/h 12.9 km/h 19% 0 mm 870.00 W/m2
14:54 37.2 °C 9.4 °C 1012.4 hPa SSW 11.3 km/h 16.1 km/h 19% 0 mm 860.00 W/m2
14:59 37.2 °C 8.9 °C 1012.4 hPa SSW 9.7 km/h 11.3 km/h 18% 0 mm 854.00 W/m2
15:04 37.2 °C 8.3 °C 1012.4 hPa SW 14.5 km/h 9.7 km/h 17% 0 mm 847.00 W/m2
15:09 37.2 °C 10 °C 1012.4 hPa West 6.4 km/h 14.5 km/h 19% 0 mm 831.00 W/m2
15:14 37.8 °C 9.4 °C 1012.4 hPa SSW 9.7 km/h 6.4 km/h 18% 0 mm 819.00 W/m2
15:19 37.8 °C 9.4 °C 1012.4 hPa SW 9.7 km/h 9.7 km/h 18% 0 mm 809.00 W/m2
15:24 37.8 °C 9.4 °C 1012.4 hPa South 11.3 km/h 9.7 km/h 18% 0 mm 803.00 W/m2
15:29 37.8 °C 9.4 °C 1012.4 hPa SW 11.3 km/h 11.3 km/h 18% 0 mm 780.00 W/m2
15:34 37.8 °C 8.3 °C 1012.4 hPa WSW 11.3 km/h 11.3 km/h 17% 0 mm 765.00 W/m2
15:39 37.8 °C 8.3 °C 1012.4 hPa SW 14.5 km/h 11.3 km/h 17% 0 mm 759.00 W/m2
15:44 37.8 °C 9.4 °C 1012.4 hPa SW 14.5 km/h 14.5 km/h 18% 0 mm 749.00 W/m2
15:49 37.8 °C 8.9 °C 1012.4 hPa SW 20.9 km/h 12.9 km/h 17% 0 mm 742.00 W/m2
15:54 38.3 °C 8.9 °C 1012.4 hPa SW 17.7 km/h 20.9 km/h 17% 0 mm 726.00 W/m2
15:59 38.3 °C 9.4 °C 1012.4 hPa SW 9.7 km/h 16.1 km/h 18% 0 mm 712.00 W/m2
16:04 38.3 °C 8.9 °C 1012.4 hPa SSW 14.5 km/h 9.7 km/h 17% 0 mm 696.00 W/m2
16:09 38.3 °C 8.9 °C 1012.4 hPa SW 17.7 km/h 14.5 km/h 17% 0 mm 679.00 W/m2
16:14 38.3 °C 10 °C 1012.4 hPa SW 9.7 km/h 16.1 km/h 18% 0 mm 668.00 W/m2
16:19 38.3 °C 8.9 °C 1012.4 hPa SSW 17.7 km/h 9.7 km/h 17% 0 mm 650.00 W/m2
16:23 38.3 °C 7.8 °C 1012.4 hPa WNW 25.7 km/h 25.7 km/h 16% 0 mm 635.00 W/m2
16:29 37.8 °C 9.4 °C 1012.4 hPa SSW 6.4 km/h 4.8 km/h 18% 0 mm 621.00 W/m2
16:34 38.3 °C 9.4 °C 1012.4 hPa WSW 6.4 km/h 4.8 km/h 18% 0 mm 596.00 W/m2
16:39 38.3 °C 8.9 °C 1012.4 hPa WSW 6.4 km/h 4.8 km/h 17% 0 mm 584.00 W/m2
16:44 38.3 °C 7.2 °C 1012.4 hPa WSW 9.7 km/h 4.8 km/h 15% 0 mm 566.00 W/m2
16:49 38.3 °C 7.8 °C 1012.4 hPa SW 3.2 km/h 9.7 km/h 16% 0 mm 557.00 W/m2
16:54 38.3 °C 8.9 °C 1012.4 hPa SSW 11.3 km/h 4.8 km/h 17% 0 mm 541.00 W/m2
16:59 38.3 °C 8.3 °C 1012.4 hPa WSW 9.7 km/h 11.3 km/h 16% 0 mm 531.00 W/m2
17:04 38.3 °C 8.3 °C 1012.4 hPa SSW 20.9 km/h 17.7 km/h 16% 0 mm 520.00 W/m2
17:09 38.3 °C 8.3 °C 1012.4 hPa SW 11.3 km/h 20.9 km/h 16% 0 mm 504.00 W/m2
El Dorado Weather
Compliments of Weather Underground - 2 mb